Hauptseite
METAR-TAF:

METAR-TAF

Flughäfen :

Flughafen Saragossa

Saragossa, Spanien

Breite: 41-40N, Länge: 001-01W, Höhe: 263 m

Beobachtung

Neuester Wetterbericht von vor 28 Minuten, um 04:00 UTC
Wind 10 kt aus West/Südwest
Temperatur 5°C
Luftfeuchtigkeit 81%
Luftdruck 1012 hPa
Sichtweite 10 km oder mehr
Leicht bewölkt in der Höhe von 5000 ft

METAR: LEZG 170400Z 25010KT 9999 FEW050 05/02 Q1012

Zeit: 05:28 (04:28 UTC)

Prognose

Neuester Wetterbericht von vor 5 Stunden und 28 Minuten, um 23:00 UTC
Gültige Prognose vom 17 um 00 UTC bis 17 um 24 UTC
Wind 10 kt aus West
Sichtweite 10 km oder mehr
Leicht bewölkt in der Höhe von 4000 ft
Zeitweise
vom 17 um 12 UTC bis 17 um 17 UTC
Wind 15 kt aus West, Böen bis zu 25 kt

TAF: LEZG 162300Z 1700/1724 28010KT 9999 FEW040 TX12/1713Z TN04/1706Z TEMPO 1712/1717 27015G25KT

Wetterbeobachtungen und Prognosen von mehr als 4000 Flughäfen (METAR und TAF Bericht).

Die verfügbaren Stationen werden durch gelbe und rote Markierungen auf der Karte dargestellt.

Führen Sie die Maus auf sie, um den Namen der Station zu sehen.

Darauf klicken, um die Beobachtung von Wetterbeobachtungen und Prognosen zu sehen.

Um die Karte zu ändern : klicken Sie auf den grünen Tasten mit einem schwarzen Kreuz Zum Vergrößern, auf den grünen Button mit einem Gedankenstrich zu verkleinern, oder auf die grünen Pfeile für benachbarte Karten.


METAR-TAF: